Terminal Aerodrome Forecast
Issued by NWS

Home | Current Version | Previous Version | Text Only | Print | Product List | Glossary On
Versions: 1 2 3 4 5 6 7 8 9 10 11 12 13 14 15 16 17 18 19 20 21 22 23 24 25 26 27 28 29 30 31 32 33 34 35 36 37 38
093
FTUS43 KMKX 051905 AAC
TAFENW
TAF AMD
KENW 051905Z 0519/0618 20011KT 3SM BR OVC004
     FM060100 16006KT 4SM BR OVC008
     FM060700 17006KT 3SM BR BKN008
     FM060900 16006KT 1SM BR OVC008
     FM061700 24007KT 6SM BR BKN015=

USA.gov is the U.S. government's official web portal to all federal, state and local government web resources and services.